createdAt,value
2018-09-29T00:50:26.593Z,4.68
2018-09-29T09:16:16.000Z,15.10
2018-09-29T09:18:44.200Z,15.04
2018-09-29T09:21:12.420Z,14.78
2018-09-29T09:23:40.648Z,14.60
2018-09-29T09:26:11.887Z,14.81
2018-09-29T09:28:40.013Z,14.62
2018-09-29T09:31:14.708Z,14.38
2018-09-29T09:33:42.965Z,14.52
2018-09-29T09:36:11.168Z,14.38
2018-09-29T09:38:39.388Z,13.90
2018-09-29T09:41:07.608Z,13.99
2018-09-29T09:43:35.873Z,14.02
2018-09-29T09:46:08.096Z,14.02
2018-09-29T09:48:36.249Z,14.07
2018-09-29T09:51:04.567Z,14.37
2018-09-29T09:53:32.715Z,14.48
2018-09-29T09:56:01.027Z,14.20
2018-09-29T09:58:29.289Z,14.11
2018-09-29T10:01:02.928Z,14.16
2018-09-29T10:03:32.509Z,14.32
2018-09-29T10:06:00.713Z,13.92
2018-09-29T10:08:28.819Z,13.67
2018-09-29T10:10:57.152Z,13.64
2018-09-29T10:13:25.532Z,14.02
2018-09-29T10:15:53.772Z,14.12
2018-09-29T10:18:21.932Z,14.38
2018-09-29T10:20:50.127Z,14.03
2018-09-29T10:23:18.291Z,14.29
2018-09-29T10:25:46.588Z,14.36
2018-09-29T10:28:14.687Z,14.43
2018-09-29T10:30:42.887Z,13.92
2018-09-29T10:33:11.327Z,13.58
2018-09-29T10:35:39.648Z,13.77
2018-09-29T10:38:07.887Z,13.69
2018-09-29T10:40:36.168Z,14.01
2018-09-29T10:43:04.375Z,14.06
2018-09-29T10:45:32.635Z,13.93
2018-09-29T10:48:00.786Z,13.67
2018-09-29T10:50:29.067Z,13.85
2018-09-29T10:52:57.259Z,13.98
2018-09-29T10:55:25.727Z,13.87
2018-09-29T10:57:53.948Z,14.55
2018-09-29T11:00:22.286Z,16.23
2018-09-29T11:02:50.468Z,17.67
2018-09-29T11:05:25.246Z,18.47
2018-09-29T11:07:53.506Z,18.72
2018-09-29T11:10:21.674Z,18.11
2018-09-29T11:12:50.176Z,18.98
2018-09-29T11:15:18.407Z,19.46
2018-09-29T11:17:46.666Z,17.72
2018-09-29T12:08:25.046Z,14.76
2018-09-29T12:10:53.192Z,14.65
2018-09-29T12:13:21.680Z,14.77
2018-09-29T12:15:49.860Z,14.48
2018-09-29T12:18:18.112Z,14.67
2018-09-29T12:20:46.280Z,14.66
2018-09-29T12:23:14.462Z,14.67
2018-09-29T12:25:42.660Z,14.63
2018-09-29T12:28:10.852Z,14.61
2018-09-29T12:30:39.010Z,14.77
2018-09-29T12:33:07.319Z,14.53
2018-09-29T12:35:35.510Z,14.43
2018-09-29T12:38:03.750Z,14.55
2018-09-29T12:40:31.870Z,14.68
2018-09-29T12:43:00.110Z,14.44
2018-09-29T12:45:28.250Z,14.37
2018-09-29T12:47:56.490Z,14.32
2018-09-29T12:50:24.650Z,14.42
2018-09-29T12:52:52.889Z,14.58
2018-09-29T12:55:21.030Z,14.63
2018-09-29T12:57:49.310Z,14.49
2018-09-29T13:00:17.972Z,14.38
2018-09-29T13:02:46.250Z,14.40
2018-09-29T13:05:14.417Z,14.40
2018-09-29T13:07:42.705Z,14.37
2018-09-29T13:10:10.881Z,14.64
2018-09-29T13:12:39.209Z,14.71
2018-09-29T13:15:07.401Z,14.85
2018-09-29T13:17:35.661Z,15.04
2018-09-29T13:20:04.289Z,15.06
2018-09-29T13:22:32.520Z,14.96
2018-09-29T13:25:00.681Z,14.80
2018-09-29T13:27:29.001Z,14.60
2018-09-29T13:29:57.201Z,14.57
2018-09-29T13:32:25.461Z,14.39
2018-09-29T13:34:53.602Z,14.63
2018-09-29T13:37:21.821Z,14.66
2018-09-29T13:39:50.061Z,14.79
2018-09-29T13:42:18.221Z,14.84
2018-09-29T13:44:46.442Z,14.67
2018-09-29T13:47:14.661Z,14.39
2018-09-29T13:49:42.841Z,14.41
2018-09-29T13:52:11.021Z,14.33
2018-09-29T13:54:39.200Z,14.25
